createdAt,value
2019-03-01T00:00:28.615Z,58.76
2019-03-01T00:01:28.602Z,59.07
2019-03-01T00:02:28.594Z,58.76
2019-03-01T00:03:28.617Z,59.27
2019-03-01T00:04:28.565Z,59.17
2019-03-01T00:05:28.561Z,60.10
2019-03-01T00:06:28.545Z,59.38
2019-03-01T00:07:28.524Z,59.38
2019-03-01T00:08:28.523Z,59.89
2019-03-01T00:09:28.535Z,59.58
2019-03-01T00:10:28.509Z,59.68
2019-03-01T00:11:28.486Z,61.32
2019-03-01T00:12:28.475Z,61.22
2019-03-01T00:13:28.471Z,62.85
2019-03-01T00:14:29.153Z,63.37
2019-03-01T00:15:28.457Z,63.98
2019-03-01T00:16:28.433Z,63.40
2019-03-01T00:17:28.421Z,64.73
2019-03-01T00:18:28.417Z,65.34
2019-03-01T00:19:28.435Z,66.27
2019-03-01T00:20:28.389Z,66.16
2019-03-01T00:21:28.385Z,67.90
2019-03-01T00:22:28.382Z,67.94
2019-03-01T00:23:28.385Z,69.47
2019-03-01T00:24:28.348Z,69.78
2019-03-01T00:25:28.337Z,70.09
2019-03-01T00:26:31.151Z,70.43
2019-03-01T00:27:28.311Z,70.73
2019-03-01T00:28:28.337Z,71.97
2019-03-01T00:29:28.287Z,72.48
2019-03-01T00:30:28.285Z,71.97
2019-03-01T00:31:29.101Z,71.97
2019-03-01T00:32:28.257Z,72.68
2019-03-01T00:33:28.249Z,71.97
2019-03-01T00:34:28.266Z,71.56
2019-03-01T00:35:28.228Z,72.17
2019-03-01T00:36:28.213Z,71.86
2019-03-01T00:37:28.209Z,71.66
2019-03-01T00:38:28.190Z,72.17
2019-03-01T00:39:28.179Z,71.52
2019-03-01T00:40:28.201Z,71.42
2019-03-01T00:41:28.159Z,72.24
2019-03-01T00:42:28.143Z,71.22
2019-03-01T00:43:28.144Z,72.14
2019-03-01T00:44:28.157Z,71.62
2019-03-01T00:45:28.116Z,72.68
2019-03-01T00:46:28.107Z,72.17
2019-03-01T00:47:28.093Z,72.89
2019-03-01T00:48:28.087Z,72.89
2019-03-01T00:50:27.101Z,74.73
2019-03-01T00:51:28.050Z,74.53
2019-03-01T00:52:28.032Z,74.63
2019-03-01T00:53:28.033Z,75.66
2019-03-01T00:54:28.015Z,75.90
2019-03-01T00:55:28.049Z,76.41
2019-03-01T00:56:27.997Z,76.82
2019-03-01T00:57:27.980Z,76.89
2019-03-01T00:58:27.977Z,77.03
2019-03-01T00:59:27.961Z,78.25
2019-03-01T01:00:27.945Z,77.64
2019-03-01T01:01:27.953Z,78.46
2019-03-01T01:02:27.960Z,78.56
2019-03-01T01:03:27.918Z,78.36
2019-03-01T01:04:27.903Z,78.25
2019-03-01T01:05:27.906Z,79.08
2019-03-01T01:06:27.913Z,78.91
2019-03-01T01:07:27.875Z,78.36
2019-03-01T01:08:27.861Z,78.29
2019-03-01T01:09:27.849Z,79.01
2019-03-01T01:10:27.843Z,78.19
2019-03-01T01:11:27.882Z,79.11
2019-03-01T01:12:27.816Z,78.29
2019-03-01T01:13:27.802Z,78.91
2019-03-01T01:14:30.848Z,79.01
2019-03-01T01:15:27.781Z,79.01
2019-03-01T01:16:27.804Z,78.91
2019-03-01T01:17:27.760Z,79.01
2019-03-01T01:18:27.755Z,79.22
2019-03-01T01:19:27.775Z,79.42
2019-03-01T01:20:27.739Z,79.77
2019-03-01T01:21:27.725Z,79.73
2019-03-01T01:22:27.711Z,79.52
2019-03-01T01:23:27.700Z,80.79
2019-03-01T01:24:27.714Z,82.03
2019-03-01T01:25:27.674Z,81.92
2019-03-01T01:26:27.666Z,82.19
2019-03-01T01:27:27.657Z,83.22
2019-03-01T01:28:27.641Z,83.77
2019-03-01T01:29:27.637Z,84.18
2019-03-01T01:30:27.652Z,83.36
2019-03-01T01:31:27.616Z,83.26
2019-03-01T01:32:27.604Z,83.40
2019-03-01T01:33:27.589Z,83.81
2019-03-01T01:34:27.577Z,84.22
2019-03-01T01:35:27.572Z,84.74
2019-03-01T01:36:27.596Z,84.84
2019-03-01T01:37:27.544Z,85.14
2019-03-01T01:38:27.533Z,85.35
2019-03-01T01:39:28.088Z,85.14
2019-03-01T01:40:27.514Z,85.14
2019-03-01T01:41:27.504Z,85.04
2019-03-01T01:42:27.515Z,85.66
2019-03-01T01:43:27.482Z,85.86
2019-03-01T01:44:27.470Z,86.48
2019-03-01T01:45:27.458Z,86.79
2019-03-01T01:46:27.489Z,87.04
2019-03-01T01:47:27.463Z,87.13
2019-03-01T01:48:27.455Z,87.45
2019-03-01T01:49:27.425Z,88.17
2019-03-01T01:50:28.093Z,88.78
2019-03-01T01:51:27.402Z,88.68
2019-03-01T01:52:28.080Z,88.62
2019-03-01T01:53:30.078Z,88.92
2019-03-01T01:54:27.356Z,89.91
2019-03-01T01:55:27.346Z,90.22
2019-03-01T01:56:27.624Z,90.12
2019-03-01T01:57:27.322Z,90.67
2019-03-01T01:58:27.312Z,90.78
2019-03-01T01:59:27.299Z,90.78
2019-03-01T02:00:27.291Z,91.76
2019-03-01T02:01:27.310Z,90.78
2019-03-01T02:02:27.291Z,91.80
2019-03-01T02:03:27.254Z,90.78
2019-03-01T02:04:27.242Z,90.88
2019-03-01T02:05:27.238Z,91.91
2019-03-01T02:06:27.222Z,92.11
2019-03-01T02:07:27.248Z,92.73
2019-03-01T02:08:27.199Z,92.32
2019-03-01T02:09:27.196Z,93.04
2019-03-01T02:10:27.202Z,92.42
2019-03-01T02:11:27.173Z,93.35
2019-03-01T02:12:28.080Z,92.73
2019-03-01T02:13:27.146Z,92.63
2019-03-01T02:14:27.134Z,92.93
2019-03-01T02:15:27.136Z,92.83
2019-03-01T02:16:27.107Z,93.14
2019-03-01T02:17:27.300Z,92.83
2019-03-01T02:18:27.100Z,92.63
2019-03-01T02:19:27.082Z,92.93
2019-03-01T02:20:27.070Z,93.04
2019-03-01T02:21:27.584Z,92.63
2019-03-01T02:22:27.049Z,93.04
2019-03-01T02:23:27.062Z,93.24
2019-03-01T02:24:27.024Z,93.35
2019-03-01T02:25:27.015Z,93.35
2019-03-01T02:26:27.000Z,93.24
2019-03-01T02:27:26.996Z,93.24
2019-03-01T02:28:27.016Z,92.11
2019-03-01T02:29:26.974Z,91.91
2019-03-01T02:30:26.958Z,92.01
2019-03-01T02:31:26.959Z,92.42
2019-03-01T02:32:26.940Z,92.32
2019-03-01T02:33:26.952Z,92.21
2019-03-01T02:34:26.955Z,92.83
2019-03-01T02:35:26.908Z,92.27
2019-03-01T02:36:26.890Z,92.32
2019-03-01T02:37:26.876Z,91.70
2019-03-01T02:38:26.872Z,91.80
2019-03-01T02:39:26.869Z,91.80
2019-03-01T02:40:26.901Z,91.97
2019-03-01T02:41:26.841Z,91.70
2019-03-01T02:42:26.827Z,91.66
2019-03-01T02:43:26.819Z,91.70
2019-03-01T02:44:26.810Z,91.91
2019-03-01T02:46:25.815Z,91.80
2019-03-01T02:47:26.777Z,91.91
2019-03-01T02:48:26.763Z,91.80
2019-03-01T02:49:26.765Z,91.70
2019-03-01T02:50:26.747Z,91.49
2019-03-01T02:52:25.717Z,92.32
2019-03-01T02:53:26.711Z,92.58
2019-03-01T02:54:26.698Z,92.83
2019-03-01T02:55:26.696Z,93.20
2019-03-01T02:56:26.717Z,92.79
2019-03-01T02:57:26.662Z,92.27
2019-03-01T02:58:26.658Z,92.38
2019-03-01T02:59:26.653Z,91.91
2019-03-01T03:00:26.636Z,92.52
2019-03-01T03:01:26.619Z,92.17
2019-03-01T03:02:26.639Z,92.27
2019-03-01T03:03:26.595Z,92.42
2019-03-01T03:04:26.588Z,91.97
2019-03-01T03:05:26.576Z,92.32
2019-03-01T03:06:26.603Z,91.91
2019-03-01T03:07:26.560Z,91.97
2019-03-01T03:08:26.544Z,91.97
2019-03-01T03:09:26.530Z,92.21
2019-03-01T03:10:26.525Z,92.01
2019-03-01T03:11:26.517Z,91.86
2019-03-01T03:12:26.535Z,91.66
2019-03-01T03:13:26.487Z,91.70
2019-03-01T03:14:26.475Z,91.86
2019-03-01T03:15:26.467Z,91.66
2019-03-01T03:16:26.457Z,92.07
2019-03-01T03:17:26.447Z,92.27
2019-03-01T03:18:26.496Z,91.97
2019-03-01T03:19:26.432Z,91.86
2019-03-01T03:20:26.415Z,92.38
2019-03-01T03:21:26.440Z,92.27
2019-03-01T03:22:26.398Z,92.27
2019-03-01T03:23:26.379Z,92.38
2019-03-01T03:24:26.369Z,92.48
2019-03-01T03:25:26.356Z,92.17
2019-03-01T03:26:26.378Z,92.07
2019-03-01T03:27:26.338Z,91.97
2019-03-01T03:28:26.339Z,92.07
2019-03-01T03:29:26.318Z,92.17
2019-03-01T03:30:26.307Z,91.86
2019-03-01T03:31:26.289Z,91.55
2019-03-01T03:32:27.087Z,91.66
2019-03-01T03:33:26.269Z,91.55
2019-03-01T03:34:26.265Z,91.66
2019-03-01T03:35:26.252Z,91.86
2019-03-01T03:36:26.237Z,91.66
2019-03-01T03:37:26.247Z,91.97
2019-03-01T03:38:26.253Z,91.97
2019-03-01T03:39:26.210Z,91.97
2019-03-01T03:40:26.207Z,91.97
2019-03-01T03:42:25.175Z,92.07
2019-03-01T03:43:26.161Z,91.86
2019-03-01T03:44:26.144Z,91.86
2019-03-01T03:45:26.141Z,91.55
2019-03-01T03:46:26.130Z,91.76
2019-03-01T03:47:26.143Z,90.94
2019-03-01T03:48:27.052Z,91.25
2019-03-01T03:49:26.090Z,91.04
2019-03-01T03:50:26.087Z,91.45
2019-03-01T03:51:26.083Z,91.76
2019-03-01T03:52:26.060Z,91.66
2019-03-01T03:53:26.090Z,91.86
2019-03-01T03:54:26.041Z,92.17
2019-03-01T03:55:26.028Z,92.48
2019-03-01T03:56:26.021Z,92.38
2019-03-01T03:57:26.005Z,92.69
2019-03-01T03:58:25.997Z,92.79
2019-03-01T03:59:26.008Z,93.04
2019-03-01T04:00:25.970Z,93.10
2019-03-01T04:01:25.968Z,92.99
2019-03-01T04:02:26.546Z,93.40
2019-03-01T04:03:25.945Z,93.40
2019-03-01T04:04:25.932Z,93.30
2019-03-01T04:05:26.089Z,92.99
2019-03-01T04:06:25.908Z,92.99
2019-03-01T04:07:25.894Z,93.35
2019-03-01T04:08:25.889Z,93.65
2019-03-01T04:09:25.999Z,93.44
2019-03-01T04:10:25.862Z,93.20
2019-03-01T04:11:25.849Z,93.30
2019-03-01T04:12:25.847Z,93.40
2019-03-01T04:13:25.826Z,93.10
2019-03-01T04:14:25.834Z,92.48
2019-03-01T04:15:25.840Z,92.63
2019-03-01T04:16:25.798Z,92.38
2019-03-01T04:17:25.790Z,92.69
2019-03-01T04:18:25.816Z,92.99
2019-03-01T04:19:25.797Z,92.99
2019-03-01T04:20:25.751Z,92.27
2019-03-01T04:21:25.766Z,92.69
2019-03-01T04:22:25.741Z,92.27
2019-03-01T04:23:25.724Z,92.48
2019-03-01T04:24:25.717Z,92.63
2019-03-01T04:25:26.542Z,92.58
2019-03-01T04:26:25.702Z,92.32
2019-03-01T04:27:25.678Z,91.86
2019-03-01T04:28:25.664Z,92.07
2019-03-01T04:29:25.777Z,92.01
2019-03-01T04:30:25.672Z,91.55
2019-03-01T04:31:25.632Z,91.55
2019-03-01T04:32:25.622Z,91.76
2019-03-01T04:33:25.612Z,91.97
2019-03-01T04:34:25.625Z,91.86
2019-03-01T04:35:25.588Z,91.66
2019-03-01T04:36:25.615Z,91.76
2019-03-01T04:37:25.572Z,91.66
2019-03-01T04:38:25.560Z,91.86
2019-03-01T04:39:25.546Z,91.76
2019-03-01T04:40:25.538Z,91.04
2019-03-01T04:41:25.522Z,90.73
2019-03-01T04:42:25.601Z,90.63
2019-03-01T04:43:25.511Z,90.63
2019-03-01T04:44:25.494Z,90.18
2019-03-01T04:45:25.481Z,90.22
2019-03-01T04:46:25.477Z,90.28
2019-03-01T04:47:25.470Z,90.69
2019-03-01T04:48:25.473Z,90.12
2019-03-01T04:49:25.435Z,90.38
2019-03-01T04:50:25.428Z,90.80
2019-03-01T04:51:25.415Z,90.38
2019-03-01T04:52:25.444Z,90.22
2019-03-01T04:53:25.401Z,90.32
2019-03-01T04:54:25.407Z,89.91
2019-03-01T04:55:25.381Z,90.08
2019-03-01T04:56:25.357Z,90.28
2019-03-01T04:57:25.348Z,90.08
2019-03-01T04:58:25.338Z,90.08
2019-03-01T04:59:25.356Z,89.97
2019-03-01T05:00:25.315Z,89.87
2019-03-01T05:01:28.052Z,89.87
2019-03-01T05:02:25.294Z,89.91
2019-03-01T05:03:25.285Z,89.87
2019-03-01T05:04:25.274Z,89.76
2019-03-01T05:05:25.296Z,90.38
2019-03-01T05:06:25.252Z,89.87
2019-03-01T05:07:25.251Z,89.56
2019-03-01T05:08:25.226Z,89.15
2019-03-01T05:09:25.216Z,90.01
2019-03-01T05:10:25.215Z,89.97
2019-03-01T05:11:25.203Z,89.87
2019-03-01T05:12:25.181Z,89.87
2019-03-01T05:13:25.211Z,89.97
2019-03-01T05:14:25.163Z,89.60
2019-03-01T05:15:25.157Z,90.18
2019-03-01T05:16:25.149Z,89.25
2019-03-01T05:17:25.127Z,89.87
2019-03-01T05:18:25.157Z,89.87
2019-03-01T05:19:25.104Z,89.76
2019-03-01T05:20:25.099Z,89.87
2019-03-01T05:21:25.112Z,90.18
2019-03-01T05:22:25.110Z,89.76
2019-03-01T05:23:25.065Z,89.66
2019-03-01T05:24:25.066Z,90.38
2019-03-01T05:25:25.045Z,90.38
2019-03-01T05:26:27.524Z,89.87
2019-03-01T05:27:28.026Z,90.38
2019-03-01T05:28:25.005Z,89.87
2019-03-01T05:29:25.000Z,89.76
2019-03-01T05:30:24.993Z,89.87
2019-03-01T05:31:25.005Z,90.18
2019-03-01T05:32:24.966Z,89.15
2019-03-01T05:33:24.951Z,90.18
2019-03-01T05:34:24.940Z,89.70
2019-03-01T05:35:24.931Z,90.08
2019-03-01T05:36:24.925Z,89.56
2019-03-01T05:37:24.913Z,89.60
2019-03-01T05:38:24.926Z,89.70
2019-03-01T05:39:24.897Z,89.04
2019-03-01T05:40:24.879Z,88.43
2019-03-01T05:42:23.892Z,87.92
2019-03-01T05:43:24.847Z,89.66
2019-03-01T05:44:24.829Z,88.84
2019-03-01T05:45:24.824Z,88.64
2019-03-01T05:46:24.809Z,87.92
2019-03-01T05:47:24.836Z,88.53
2019-03-01T05:48:24.792Z,88.23
2019-03-01T05:49:24.792Z,88.12
2019-03-01T05:50:24.772Z,88.12
2019-03-01T05:51:24.762Z,88.23
2019-03-01T05:52:24.748Z,88.43
2019-03-01T05:53:26.017Z,88.53
2019-03-01T05:54:25.516Z,87.92
2019-03-01T05:55:24.712Z,88.33
2019-03-01T05:56:24.706Z,88.53
2019-03-01T05:57:24.745Z,88.43
2019-03-01T05:58:24.682Z,88.23
2019-03-01T05:59:24.667Z,87.92
2019-03-01T06:00:24.656Z,88.02
2019-03-01T06:01:24.651Z,87.61
2019-03-01T06:02:24.644Z,87.92
2019-03-01T06:03:24.667Z,87.51
2019-03-01T06:04:24.615Z,88.12
2019-03-01T06:05:27.513Z,88.02
2019-03-01T06:06:24.595Z,87.10
2019-03-01T06:07:27.515Z,87.30
2019-03-01T06:08:24.571Z,87.51
2019-03-01T06:09:24.585Z,87.40
2019-03-01T06:10:24.549Z,87.40
2019-03-01T06:11:24.537Z,86.54
2019-03-01T06:12:24.553Z,87.05
2019-03-01T06:13:25.005Z,86.54
2019-03-01T06:15:23.499Z,86.33
2019-03-01T06:16:24.489Z,85.82
2019-03-01T06:17:25.005Z,86.65
2019-03-01T06:18:24.495Z,86.65
2019-03-01T06:19:24.507Z,86.33
2019-03-01T06:20:24.437Z,86.24
2019-03-01T06:21:24.442Z,86.33
2019-03-01T06:22:24.423Z,86.54
2019-03-01T06:23:24.404Z,86.54
2019-03-01T06:24:24.391Z,86.13
2019-03-01T06:26:23.373Z,86.13
2019-03-01T06:27:24.369Z,86.03
2019-03-01T06:28:25.033Z,85.82
2019-03-01T06:29:24.342Z,85.52
2019-03-01T06:30:24.356Z,86.13
2019-03-01T06:31:24.321Z,85.52
2019-03-01T06:32:24.308Z,85.41
2019-03-01T06:33:24.297Z,85.00
2019-03-01T06:34:25.005Z,85.41
2019-03-01T06:35:24.270Z,85.52
2019-03-01T06:36:24.297Z,85.00
2019-03-01T06:37:24.249Z,84.59
2019-03-01T06:38:24.242Z,84.59
2019-03-01T06:39:24.231Z,84.80
2019-03-01T06:40:24.218Z,84.39
2019-03-01T06:41:24.217Z,83.87
2019-03-01T06:42:24.239Z,83.98
2019-03-01T06:44:23.172Z,83.32
2019-03-01T06:45:24.165Z,81.99
2019-03-01T06:46:24.163Z,81.06
2019-03-01T06:47:24.150Z,80.65
2019-03-01T06:48:24.160Z,80.76
2019-03-01T06:49:24.137Z,81.27
2019-03-01T06:50:24.107Z,80.86
2019-03-01T06:51:28.828Z,80.62
2019-03-01T06:52:24.207Z,81.06
2019-03-01T06:53:24.096Z,79.08
2019-03-01T06:54:24.065Z,79.18
2019-03-01T06:55:25.007Z,79.28
2019-03-01T06:56:24.045Z,77.23
2019-03-01T06:57:24.031Z,77.84
2019-03-01T06:58:24.045Z,78.16
2019-03-01T06:59:24.017Z,77.33
2019-03-01T07:00:24.005Z,77.74
2019-03-01T07:01:23.991Z,77.44
2019-03-01T07:02:23.997Z,77.74
2019-03-01T07:03:24.491Z,76.82
2019-03-01T07:04:23.955Z,77.95
2019-03-01T07:05:23.951Z,77.64
2019-03-01T07:06:23.930Z,77.13
2019-03-01T07:07:23.931Z,77.03
2019-03-01T07:08:24.038Z,77.33
2019-03-01T07:09:23.903Z,76.72
2019-03-01T07:10:23.921Z,76.89
2019-03-01T07:11:23.879Z,77.54
2019-03-01T07:12:23.874Z,77.74
2019-03-01T07:13:23.857Z,76.82
2019-03-01T07:14:23.851Z,77.09
2019-03-01T07:15:23.840Z,76.41
2019-03-01T07:16:23.870Z,76.62
2019-03-01T07:17:23.813Z,76.82
2019-03-01T07:18:23.803Z,77.54
2019-03-01T07:19:23.804Z,76.58
2019-03-01T07:20:23.805Z,76.48
2019-03-01T07:21:23.767Z,76.51
2019-03-01T07:22:23.764Z,76.31
2019-03-01T07:23:24.492Z,76.48
2019-03-01T07:24:23.868Z,76.37
2019-03-01T07:25:23.763Z,76.99
2019-03-01T07:26:23.724Z,77.20
2019-03-01T07:27:23.707Z,76.37
2019-03-01T07:28:23.691Z,76.68
2019-03-01T07:29:23.690Z,76.68
2019-03-01T07:30:23.721Z,76.48
2019-03-01T07:31:23.661Z,76.07
2019-03-01T07:32:24.482Z,76.68
2019-03-01T07:33:23.641Z,76.78
2019-03-01T07:34:26.493Z,76.27
2019-03-01T07:35:23.617Z,76.27
2019-03-01T07:36:23.655Z,75.45
2019-03-01T07:37:23.616Z,75.66
2019-03-01T07:38:23.623Z,75.24
2019-03-01T07:39:23.576Z,75.76
2019-03-01T07:40:23.563Z,75.52
2019-03-01T07:41:23.547Z,74.80
2019-03-01T07:42:23.542Z,74.49
2019-03-01T07:43:23.561Z,74.49
2019-03-01T07:44:23.521Z,74.60
2019-03-01T07:45:23.511Z,74.70
2019-03-01T07:46:23.509Z,74.29
2019-03-01T07:47:23.483Z,73.88
2019-03-01T07:49:22.462Z,73.98
2019-03-01T07:50:25.986Z,73.88
2019-03-01T07:51:23.437Z,73.78
2019-03-01T07:52:23.426Z,74.39
2019-03-01T07:53:23.421Z,74.19
2019-03-01T07:54:25.028Z,74.08
2019-03-01T07:55:24.999Z,74.19
2019-03-01T07:57:24.984Z,73.74
2019-03-01T07:58:26.806Z,73.88
2019-03-01T07:59:24.096Z,73.95
2019-03-01T08:00:23.396Z,73.68
2019-03-01T08:01:25.742Z,74.39
2019-03-01T08:02:23.323Z,74.60
2019-03-01T08:03:23.313Z,74.29
2019-03-01T08:04:23.684Z,74.60
2019-03-01T08:05:23.283Z,74.49
2019-03-01T08:06:23.283Z,74.56
2019-03-01T08:07:23.636Z,73.33
2019-03-01T08:08:23.311Z,73.23
2019-03-01T08:09:23.254Z,73.98
2019-03-01T08:10:23.492Z,73.64
2019-03-01T08:11:23.249Z,73.54
2019-03-01T08:12:25.981Z,73.64
2019-03-01T08:14:24.684Z,73.74
2019-03-01T08:15:23.183Z,73.85
2019-03-01T08:16:25.085Z,73.33
2019-03-01T08:17:23.153Z,73.44
2019-03-01T08:18:23.163Z,74.39
2019-03-01T08:19:23.622Z,73.85
2019-03-01T08:20:23.119Z,74.46
2019-03-01T08:21:23.137Z,73.74
2019-03-01T08:23:24.975Z,73.54
2019-03-01T08:24:23.076Z,74.36
2019-03-01T08:26:22.054Z,74.36
2019-03-01T08:27:25.199Z,74.46
2019-03-01T08:28:23.164Z,74.36
2019-03-01T08:29:23.029Z,73.91
2019-03-01T08:30:23.030Z,74.63
2019-03-01T08:31:23.035Z,73.91
2019-03-01T08:32:22.991Z,73.71
2019-03-01T08:33:22.986Z,73.20
2019-03-01T08:34:22.968Z,72.99
2019-03-01T08:35:25.321Z,73.50
2019-03-01T08:36:22.970Z,73.71
2019-03-01T08:37:22.934Z,73.71
2019-03-01T08:38:25.529Z,72.89
2019-03-01T08:39:22.923Z,73.71
2019-03-01T08:40:22.911Z,73.71
2019-03-01T08:41:24.970Z,73.20
2019-03-01T08:42:22.921Z,73.71
2019-03-01T08:43:22.871Z,74.56
2019-03-01T08:44:24.130Z,74.05
2019-03-01T08:45:22.848Z,74.15
2019-03-01T08:46:22.866Z,74.36
2019-03-01T08:47:24.499Z,74.05
2019-03-01T08:48:22.851Z,74.36
2019-03-01T08:49:22.810Z,75.07
2019-03-01T08:50:22.802Z,74.46
2019-03-01T08:51:26.739Z,74.63
2019-03-01T08:52:22.779Z,74.66
2019-03-01T08:53:25.471Z,74.11
2019-03-01T08:54:26.008Z,75.07
2019-03-01T08:55:25.461Z,74.56
2019-03-01T08:56:26.307Z,74.15
2019-03-01T08:57:26.598Z,74.32
2019-03-01T08:58:22.704Z,74.02
2019-03-01T08:59:22.689Z,73.71
2019-03-01T09:00:23.119Z,74.43
2019-03-01T09:01:22.673Z,74.53
2019-03-01T09:02:22.693Z,74.11
2019-03-01T09:03:23.146Z,73.61
2019-03-01T09:04:22.636Z,73.81
2019-03-01T09:05:22.634Z,73.50
2019-03-01T09:06:22.648Z,74.22
2019-03-01T09:07:22.607Z,73.81
2019-03-01T09:08:22.923Z,73.81
2019-03-01T09:09:22.582Z,73.50
2019-03-01T09:10:22.587Z,73.61
2019-03-01T09:11:25.458Z,73.81
2019-03-01T09:12:22.574Z,73.61
2019-03-01T09:13:22.538Z,73.81
2019-03-01T09:14:25.518Z,74.43
2019-03-01T09:15:22.527Z,74.53
2019-03-01T09:16:22.693Z,74.53
2019-03-01T09:17:22.500Z,73.91
2019-03-01T09:18:22.481Z,74.43
2019-03-01T09:19:25.399Z,74.11
2019-03-01T09:20:22.462Z,74.73
2019-03-01T09:21:22.456Z,75.24
2019-03-01T09:22:24.165Z,75.35
2019-03-01T09:23:26.440Z,74.22
2019-03-01T09:24:25.644Z,74.43
2019-03-01T09:25:22.410Z,74.11
2019-03-01T09:26:22.435Z,74.63
2019-03-01T09:27:22.802Z,74.22
2019-03-01T09:28:22.375Z,74.19
2019-03-01T09:29:22.367Z,73.91
2019-03-01T09:30:22.369Z,73.61
2019-03-01T09:31:22.960Z,73.91
2019-03-01T09:32:22.375Z,74.02
2019-03-01T09:33:22.995Z,74.32
2019-03-01T09:34:22.309Z,74.11
2019-03-01T09:35:22.296Z,74.60
2019-03-01T09:36:22.296Z,73.78
2019-03-01T09:37:22.299Z,72.75
2019-03-01T09:38:23.012Z,73.78
2019-03-01T09:39:22.249Z,73.33
2019-03-01T09:40:22.324Z,72.82
2019-03-01T09:41:22.261Z,72.21
2019-03-01T09:42:22.234Z,72.21
2019-03-01T09:43:24.669Z,72.52
2019-03-01T09:44:22.205Z,72.52
2019-03-01T09:45:22.188Z,72.62
2019-03-01T09:46:24.302Z,72.41
2019-03-01T09:47:22.196Z,72.52
2019-03-01T09:48:22.163Z,72.52
2019-03-01T09:49:24.393Z,72.38
2019-03-01T09:50:22.155Z,72.41
2019-03-01T09:51:22.137Z,72.79
2019-03-01T09:52:23.528Z,72.28
2019-03-01T09:54:21.124Z,71.46
2019-03-01T09:55:22.087Z,71.46
2019-03-01T09:56:24.170Z,71.05
2019-03-01T09:57:22.058Z,71.87
2019-03-01T09:58:22.050Z,71.59
2019-03-01T09:59:22.125Z,71.36
2019-03-01T10:00:22.025Z,71.97
2019-03-01T10:01:24.950Z,71.56
2019-03-01T10:02:24.963Z,71.46
2019-03-01T10:03:22.011Z,71.25
2019-03-01T10:04:21.984Z,71.22
2019-03-01T10:05:22.021Z,71.22
2019-03-01T10:06:21.980Z,70.92
2019-03-01T10:07:21.968Z,70.10
2019-03-01T10:08:21.948Z,70.00
2019-03-01T10:09:21.934Z,70.10
2019-03-01T10:10:21.930Z,70.54
2019-03-01T10:11:21.919Z,70.40
2019-03-01T10:12:22.004Z,70.71
2019-03-01T10:13:24.471Z,70.40
2019-03-01T10:14:21.875Z,70.51
2019-03-01T10:15:21.864Z,70.61
2019-03-01T10:16:21.858Z,70.95
2019-03-01T10:17:21.865Z,70.71
2019-03-01T10:18:21.881Z,71.05
2019-03-01T10:19:21.828Z,70.64
2019-03-01T10:20:21.808Z,70.54
2019-03-01T10:21:21.811Z,70.71
2019-03-01T10:22:21.873Z,70.92
2019-03-01T10:23:22.508Z,70.95
2019-03-01T10:24:21.762Z,70.95
2019-03-01T10:25:21.756Z,70.64
2019-03-01T10:26:21.747Z,70.43
2019-03-01T10:27:21.764Z,70.64
2019-03-01T10:28:21.755Z,70.54
2019-03-01T10:29:21.746Z,71.25
2019-03-01T10:30:21.711Z,70.84
2019-03-01T10:31:24.586Z,71.25
2019-03-01T10:32:21.704Z,71.39
2019-03-01T10:33:21.697Z,71.77
2019-03-01T10:34:21.717Z,71.59
2019-03-01T10:35:21.649Z,71.56
2019-03-01T10:37:20.687Z,71.77
2019-03-01T10:38:21.645Z,71.66
2019-03-01T10:39:21.637Z,71.19
2019-03-01T10:40:21.596Z,71.70
2019-03-01T10:42:20.588Z,71.59
2019-03-01T10:43:23.430Z,71.70
2019-03-01T10:44:21.566Z,71.70
2019-03-01T10:45:21.538Z,71.70
2019-03-01T10:46:21.531Z,71.80
2019-03-01T10:47:21.518Z,71.80
2019-03-01T10:48:21.646Z,71.53
2019-03-01T10:49:21.488Z,72.41
2019-03-01T10:50:21.535Z,72.52
2019-03-01T10:51:21.589Z,72.41
2019-03-01T10:52:21.460Z,72.21
2019-03-01T10:53:21.505Z,72.52
2019-03-01T10:54:21.441Z,72.11
2019-03-01T10:55:21.429Z,71.94
2019-03-01T10:56:21.428Z,72.52
2019-03-01T10:57:21.406Z,72.52
2019-03-01T10:58:21.410Z,71.70
2019-03-01T10:59:21.416Z,71.70
2019-03-01T11:00:21.398Z,71.80
2019-03-01T11:01:21.367Z,71.80
2019-03-01T11:02:21.355Z,72.11
2019-03-01T11:03:21.362Z,71.66
2019-03-01T11:04:21.397Z,71.97
2019-03-01T11:05:21.355Z,71.05
2019-03-01T11:06:21.323Z,70.34
2019-03-01T11:07:21.310Z,70.64
2019-03-01T11:08:21.309Z,71.05
2019-03-01T11:09:21.280Z,71.25
2019-03-01T11:10:21.297Z,70.43
2019-03-01T11:11:21.314Z,70.34
2019-03-01T11:12:21.252Z,70.43
2019-03-01T11:13:21.235Z,70.75
2019-03-01T11:14:21.224Z,70.95
2019-03-01T11:15:21.218Z,70.43
2019-03-01T11:16:21.198Z,70.03
2019-03-01T11:17:21.230Z,69.93
2019-03-01T11:18:21.184Z,71.05
2019-03-01T11:19:23.932Z,70.23
2019-03-01T11:20:21.213Z,70.20
2019-03-01T11:21:21.148Z,70.54
2019-03-01T11:22:21.138Z,71.05
2019-03-01T11:23:21.157Z,70.43
2019-03-01T11:24:21.144Z,70.43
2019-03-01T11:25:21.102Z,70.54
2019-03-01T11:26:21.100Z,70.54
2019-03-01T11:27:21.088Z,70.03
2019-03-01T11:28:21.071Z,70.20
2019-03-01T11:29:21.268Z,69.93
2019-03-01T11:30:21.058Z,70.43
2019-03-01T11:31:23.932Z,70.64
2019-03-01T11:32:21.025Z,70.54
2019-03-01T11:33:21.021Z,70.84
2019-03-01T11:34:21.008Z,70.20
2019-03-01T11:35:21.035Z,70.10
2019-03-01T11:36:23.937Z,69.76
2019-03-01T11:37:21.962Z,69.24
2019-03-01T11:38:20.983Z,69.45
2019-03-01T11:39:20.986Z,69.76
2019-03-01T11:40:23.487Z,69.56
2019-03-01T11:41:20.936Z,68.33
2019-03-01T11:42:20.916Z,69.35
2019-03-01T11:43:20.909Z,69.96
2019-03-01T11:44:20.930Z,68.80
2019-03-01T11:45:20.914Z,67.99
2019-03-01T11:46:20.912Z,68.09
2019-03-01T11:47:20.868Z,68.19
2019-03-01T11:48:20.855Z,68.30
2019-03-01T11:49:20.839Z,67.68
2019-03-01T11:50:20.908Z,68.40
2019-03-01T11:51:20.830Z,67.79
2019-03-01T11:52:20.818Z,67.89
2019-03-01T11:53:20.797Z,67.99
2019-03-01T11:54:20.824Z,67.89
2019-03-01T11:55:20.782Z,67.96
2019-03-01T11:56:21.421Z,67.04
2019-03-01T11:57:20.755Z,67.45
2019-03-01T11:58:20.744Z,68.19
2019-03-01T11:59:20.741Z,67.99
2019-03-01T12:00:20.764Z,68.09
2019-03-01T12:01:20.716Z,68.50
2019-03-01T12:02:20.765Z,67.99
2019-03-01T12:03:20.692Z,68.50
2019-03-01T12:04:20.795Z,68.50
2019-03-01T12:05:20.668Z,67.99
2019-03-01T12:06:20.689Z,67.89
2019-03-01T12:07:20.653Z,68.09
2019-03-01T12:08:20.642Z,67.99
2019-03-01T12:09:20.626Z,67.79
2019-03-01T12:10:20.654Z,67.89
2019-03-01T12:11:20.605Z,67.58
2019-03-01T12:12:20.594Z,67.48
2019-03-01T12:13:20.589Z,67.68
2019-03-01T12:14:23.422Z,67.38
2019-03-01T12:15:20.588Z,67.48
2019-03-01T12:16:20.556Z,67.99
2019-03-01T12:17:20.551Z,67.68
2019-03-01T12:18:20.529Z,67.89
2019-03-01T12:19:21.200Z,67.48
2019-03-01T12:20:20.507Z,67.58
2019-03-01T12:21:20.544Z,67.79
2019-03-01T12:22:20.477Z,67.79
2019-03-01T12:23:20.472Z,67.79
2019-03-01T12:24:20.510Z,67.99
2019-03-01T12:25:20.454Z,68.30
2019-03-01T12:26:20.440Z,67.92
2019-03-01T12:27:20.454Z,68.19
2019-03-01T12:28:20.417Z,67.79
2019-03-01T12:29:20.406Z,67.89
2019-03-01T12:30:20.401Z,67.89
2019-03-01T12:31:20.383Z,67.21
2019-03-01T12:32:20.379Z,68.33
2019-03-01T12:33:20.393Z,69.35
2019-03-01T12:34:20.910Z,69.35
2019-03-01T12:35:20.390Z,68.84
2019-03-01T12:36:20.911Z,68.97
2019-03-01T12:37:20.329Z,68.46
2019-03-01T12:38:20.309Z,69.48
2019-03-01T12:39:20.303Z,70.20
2019-03-01T12:40:20.297Z,70.10
2019-03-01T12:41:20.308Z,71.97
2019-03-01T12:42:20.266Z,72.34
2019-03-01T12:43:20.258Z,72.99
2019-03-01T12:44:20.241Z,73.71
2019-03-01T12:45:20.237Z,73.71
2019-03-01T12:46:20.222Z,73.71
2019-03-01T12:47:20.241Z,74.73
2019-03-01T12:48:20.211Z,75.45
2019-03-01T12:49:20.196Z,75.04
2019-03-01T12:50:20.178Z,76.26
2019-03-01T12:51:20.908Z,75.45
2019-03-01T12:52:20.156Z,76.37
2019-03-01T12:53:20.193Z,76.30
2019-03-01T12:54:20.136Z,76.40
2019-03-01T12:55:20.169Z,75.99
2019-03-01T12:56:22.911Z,75.89
2019-03-01T12:57:20.105Z,75.99
2019-03-01T12:58:22.902Z,76.09
2019-03-01T12:59:20.086Z,75.85
2019-03-01T13:00:20.106Z,75.55
2019-03-01T13:01:20.056Z,75.55
2019-03-01T13:02:20.050Z,75.21
2019-03-01T13:03:20.036Z,74.59
2019-03-01T13:04:20.053Z,74.39
2019-03-01T13:05:20.013Z,74.18
2019-03-01T13:06:20.027Z,74.18
2019-03-01T13:07:19.991Z,74.25
2019-03-01T13:08:20.905Z,74.25